Time;durP1;ratioP1;P1;durP2;ratioP2;P2;SDS_P1;SDS_P2;PMS_P1;PMS_P2;Temp;Humidity;BMP_temperature;BMP_pressure;BME280_temperature;BME280_humidity;BME280_pressure;Samples;Min_cycle;Max_cycle;Signal;HPM_P1;HPM_P2
2022/06/17 00:02:05;;;;;;;6.30;1.70;;;;;;;24.51;47.54;100917.44;5027902;28;20323;-63
2022/06/17 00:04:31;;;;;;;3.00;1.60;;;;;;;24.50;47.62;100912.91;5029556;28;20260;-63
2022/06/17 00:06:58;;;;;;;5.17;1.73;;;;;;;24.51;47.88;100917.44;5029608;28;20215;-63
2022/06/17 00:09:24;;;;;;;3.03;1.50;;;;;;;24.51;48.27;100916.63;5033867;28;20227;-63
2022/06/17 00:11:50;;;;;;;3.03;1.70;;;;;;;24.50;47.92;100918.69;5049483;28;20430;-63
2022/06/17 00:14:18;;;;;;;3.57;1.50;;;;;;;24.51;48.42;100910.84;5049529;28;20422;-63
2022/06/17 00:16:43;;;;;;;4.33;1.80;;;;;;;24.50;48.54;100914.97;5033617;28;20490;-63
2022/06/17 00:19:09;;;;;;;2.67;1.70;;;;;;;24.51;48.45;100916.63;5033616;28;20423;-63
2022/06/17 00:21:36;;;;;;;2.60;1.17;;;;;;;24.51;48.29;100919.50;5016255;28;20204;-63
2022/06/17 00:24:13;;;;;;;3.90;1.67;;;;;;;24.50;48.58;100929.41;5013301;28;20183;-63
2022/06/17 00:26:38;;;;;;;3.27;1.60;;;;;;;24.49;48.84;100934.34;5040211;28;20413;-63
2022/06/17 00:29:04;;;;;;;2.63;1.70;;;;;;;24.49;48.85;100922.78;5071025;28;20428;-63
2022/06/17 00:31:29;;;;;;;3.00;1.50;;;;;;;24.50;49.05;100918.69;5071196;28;20164;-63
2022/06/17 00:33:54;;;;;;;2.60;1.63;;;;;;;24.49;48.87;100914.13;5071505;28;20151;-63
2022/06/17 00:36:20;;;;;;;5.07;1.70;;;;;;;24.49;48.93;100911.25;5036767;28;20242;-63
2022/06/17 00:38:45;;;;;;;2.20;1.50;;;;;;;24.49;48.78;100916.22;5030657;28;20176;-63
2022/06/17 00:41:33;;;;;;;2.40;1.60;;;;;;;24.48;49.00;100909.59;5029982;28;20176;-63
2022/06/17 00:44:08;;;;;;;3.27;1.70;;;;;;;24.49;49.20;100908.34;5029892;28;20156;-63
2022/06/17 00:46:40;;;;;;;3.50;1.53;;;;;;;24.48;49.17;100895.16;5034325;28;20459;-62
2022/06/17 00:49:48;;;;;;;2.90;1.60;;;;;;;24.49;49.16;100902.59;5033698;28;20403;-63
2022/06/17 00:52:38;;;;;;;3.33;1.50;;;;;;;24.48;49.06;100906.72;5011742;28;20431;-63
2022/06/17 00:55:15;;;;;;;2.83;1.60;;;;;;;24.48;49.12;100903.00;5015039;28;20425;-63
2022/06/17 00:57:41;;;;;;;2.57;1.40;;;;;;;24.48;49.35;100906.72;5029727;28;20415;-63
2022/06/17 01:00:07;;;;;;;2.23;1.30;;;;;;;24.47;49.27;100905.06;5043023;28;20444;-63
2022/06/17 01:02:34;;;;;;;2.90;1.80;;;;;;;24.48;49.21;100903.81;5050712;28;20290;-63
2022/06/17 01:04:59;;;;;;;3.00;1.60;;;;;;;24.46;49.31;100903.41;5043382;28;20180;-63
2022/06/17 01:07:26;;;;;;;2.77;1.40;;;;;;;24.47;49.38;100901.34;5029315;28;20442;-63
2022/06/17 01:09:57;;;;;;;2.73;1.57;;;;;;;24.47;49.42;100901.34;5029056;28;20280;-63
2022/06/17 01:12:38;;;;;;;3.67;1.37;;;;;;;24.47;49.59;100893.50;5031242;28;20419;-63
2022/06/17 01:15:04;;;;;;;4.57;1.53;;;;;;;24.46;49.34;100896.81;5028480;28;20746;-63
2022/06/17 01:17:30;;;;;;;2.53;1.30;;;;;;;24.46;49.43;100891.88;5047971;28;20805;-63
2022/06/17 01:19:57;;;;;;;3.97;1.60;;;;;;;24.47;49.27;100895.56;5040063;28;20438;-63
2022/06/17 01:22:37;;;;;;;4.57;1.50;;;;;;;24.46;49.40;100888.13;5041513;28;20199;-63
2022/06/17 01:25:05;;;;;;;3.87;1.80;;;;;;;24.45;49.55;100893.09;5049877;28;20421;-63
2022/06/17 01:27:38;;;;;;;2.93;1.43;;;;;;;24.45;49.59;100893.09;5060113;28;20764;-63
2022/06/17 01:30:05;;;;;;;2.47;1.30;;;;;;;24.45;49.33;100893.09;5071888;28;20409;-63
2022/06/17 01:32:34;;;;;;;4.53;1.50;;;;;;;24.45;49.38;100896.00;5070963;28;20417;-63
2022/06/17 01:35:00;;;;;;;2.60;1.43;;;;;;;24.44;49.61;100888.53;5050596;28;20426;-62
2022/06/17 01:37:27;;;;;;;2.63;1.23;;;;;;;24.45;49.51;100893.09;5050271;28;20410;-63
2022/06/17 01:39:52;;;;;;;2.30;1.40;;;;;;;24.43;49.70;100895.56;5048911;28;20160;-63
2022/06/17 01:42:18;;;;;;;3.00;1.67;;;;;;;24.43;49.61;100889.78;5050361;28;20793;-63
2022/06/17 01:44:43;;;;;;;1.97;1.17;;;;;;;24.44;49.34;100897.19;5050207;28;20175;-63
2022/06/17 01:47:11;;;;;;;3.23;1.20;;;;;;;24.43;49.52;100901.31;5051418;28;20176;-63
2022/06/17 01:49:46;;;;;;;3.20;1.43;;;;;;;24.43;49.77;100901.31;5053103;28;20237;-63
2022/06/17 01:52:15;;;;;;;2.70;1.33;;;;;;;24.44;49.71;100896.38;5051835;28;20471;-63
2022/06/17 01:54:58;;;;;;;3.80;1.60;;;;;;;24.44;49.37;100896.38;5035570;28;20422;-63
2022/06/17 01:57:26;;;;;;;2.83;1.50;;;;;;;24.43;49.71;100895.56;5014971;28;20451;-63
2022/06/17 01:59:54;;;;;;;2.97;1.60;;;;;;;24.43;49.78;100895.56;5030297;28;20415;-63
2022/06/17 02:02:19;;;;;;;2.73;1.43;;;;;;;24.42;50.07;100899.69;5030598;28;20520;-63
2022/06/17 02:04:47;;;;;;;2.70;1.33;;;;;;;24.43;49.73;100897.63;5046244;28;20919;-63
2022/06/17 02:07:20;;;;;;;2.63;1.30;;;;;;;24.43;49.69;100904.22;5040821;28;20275;-63
2022/06/17 02:09:45;;;;;;;2.90;1.40;;;;;;;24.42;49.73;100896.78;5051839;28;20950;-63
2022/06/17 02:12:11;;;;;;;2.30;1.40;;;;;;;24.43;49.57;100895.56;5052894;28;20417;-63
2022/06/17 02:14:36;;;;;;;2.63;1.23;;;;;;;24.42;49.84;100901.72;5053068;28;20178;-63
2022/06/17 02:17:02;;;;;;;2.40;0.97;;;;;;;24.42;49.74;100891.03;5053377;28;20406;-63
2022/06/17 02:19:28;;;;;;;2.63;1.50;;;;;;;24.42;49.88;100893.06;5035869;28;20184;-63
2022/06/17 02:22:15;;;;;;;3.03;1.43;;;;;;;24.41;49.79;100886.50;5032957;28;20197;-63
2022/06/17 02:24:41;;;;;;;2.47;1.33;;;;;;;24.42;49.87;100895.94;5032006;28;20506;-63
2022/06/17 02:27:08;;;;;;;4.73;1.50;;;;;;;24.42;49.80;100893.06;5049709;28;20983;-63
2022/06/17 02:29:34;;;;;;;2.43;1.27;;;;;;;24.41;49.90;100889.38;5073338;28;20163;-63
2022/06/17 02:32:00;;;;;;;2.00;1.20;;;;;;;24.41;49.97;100886.50;5034917;28;20517;-63
2022/06/17 02:34:25;;;;;;;2.57;1.40;;;;;;;24.41;49.99;100889.38;5051150;28;20203;-63
2022/06/17 02:36:52;;;;;;;2.67;1.40;;;;;;;24.40;49.91;100887.72;5051525;28;20221;-63
2022/06/17 02:39:17;;;;;;;3.23;1.50;;;;;;;24.40;49.71;100884.84;5051436;28;20233;-63
2022/06/17 02:41:44;;;;;;;2.87;1.37;;;;;;;24.39;49.92;100894.72;5052587;28;20458;-63
2022/06/17 02:44:31;;;;;;;1.90;1.10;;;;;;;24.39;50.18;100900.47;5035043;28;20187;-63
2022/06/17 02:46:57;;;;;;;3.13;1.50;;;;;;;24.39;50.01;100900.47;5053309;28;20407;-63
2022/06/17 02:49:25;;;;;;;4.30;1.40;;;;;;;24.39;50.04;100897.59;5052595;28;20425;-63
2022/06/17 02:51:50;;;;;;;3.47;1.50;;;;;;;24.40;50.08;100901.31;5050118;28;20248;-63
2022/06/17 02:54:36;;;;;;;2.27;1.30;;;;;;;24.40;49.93;100892.66;5049930;28;20433;-63
2022/06/17 02:57:02;;;;;;;3.60;1.20;;;;;;;24.39;50.22;100894.72;5034386;28;20212;-63
2022/06/17 03:00:13;;;;;;;3.60;1.60;;;;;;;24.40;49.98;100896.38;5051057;28;20518;-63
2022/06/17 03:02:49;;;;;;;2.83;1.47;;;;;;;24.39;50.01;100891.00;5042467;28;20465;-63
2022/06/17 03:05:30;;;;;;;2.33;1.60;;;;;;;24.40;50.19;100892.66;5041952;28;20422;-63
2022/06/17 03:07:56;;;;;;;2.53;1.43;;;;;;;24.39;50.10;100893.91;5032345;28;20473;-63
2022/06/17 03:10:32;;;;;;;2.93;1.13;;;;;;;24.39;50.36;100900.47;5032605;28;20471;-63
2022/06/17 03:13:23;;;;;;;2.47;1.23;;;;;;;24.38;49.98;100898.84;5038446;28;20179;-62
2022/06/17 03:15:49;;;;;;;2.00;1.10;;;;;;;24.39;50.31;100897.59;5031836;28;20437;-63
2022/06/17 03:18:15;;;;;;;2.47;1.30;;;;;;;24.38;50.20;100892.25;5032381;28;20419;-63
2022/06/17 03:20:40;;;;;;;4.13;1.97;;;;;;;24.38;50.27;100892.25;5032230;28;20223;-63
2022/06/17 03:23:21;;;;;;;2.93;1.40;;;;;;;24.37;50.30;100897.19;5032137;28;20219;-63
2022/06/17 03:25:58;;;;;;;4.00;1.40;;;;;;;24.38;50.21;100898.84;5040494;28;20176;-63
2022/06/17 03:28:29;;;;;;;2.00;1.10;;;;;;;24.38;50.28;100904.59;5069305;28;20417;-63
2022/06/17 03:31:17;;;;;;;2.20;1.20;;;;;;;24.38;50.36;100916.16;5070516;28;20496;-63
2022/06/17 03:33:55;;;;;;;2.40;1.40;;;;;;;24.38;50.52;100921.13;5054202;28;20500;-63
2022/06/17 03:36:25;;;;;;;4.43;1.53;;;;;;;24.37;50.39;100920.28;5036374;28;20414;-63
2022/06/17 03:38:56;;;;;;;3.17;1.30;;;;;;;24.37;50.30;100917.38;4998467;28;20795;-62
2022/06/17 03:41:26;;;;;;;2.53;1.40;;;;;;;24.37;50.59;100914.50;5031706;28;20910;-63
2022/06/17 03:43:59;;;;;;;3.40;1.40;;;;;;;24.37;50.39;100913.66;5031576;28;20434;-63
2022/06/17 03:46:25;;;;;;;3.33;1.37;;;;;;;24.36;50.43;100930.19;5030446;28;20419;-63
2022/06/17 03:49:06;;;;;;;2.73;1.40;;;;;;;24.38;50.17;100926.88;5032022;28;20415;-63
2022/06/17 03:51:32;;;;;;;2.53;1.27;;;;;;;24.38;50.12;100924.00;5039822;28;20914;-63
2022/06/17 03:53:57;;;;;;;3.20;1.43;;;;;;;24.37;50.47;100937.59;5033797;28;20476;-63
2022/06/17 03:56:28;;;;;;;4.03;1.50;;;;;;;24.36;50.37;100938.00;5051559;28;20156;-63
2022/06/17 03:58:54;;;;;;;2.60;1.33;;;;;;;24.36;50.39;100947.50;5051647;28;20217;-63
2022/06/17 04:01:28;;;;;;;3.10;1.30;;;;;;;24.36;50.45;100947.50;5051225;28;20426;-63
2022/06/17 04:04:00;;;;;;;2.30;1.30;;;;;;;24.36;50.72;100947.50;5051611;28;20413;-63
2022/06/17 04:06:34;;;;;;;2.23;1.30;;;;;;;24.35;50.43;100957.41;5016033;28;20450;-63
2022/06/17 04:09:14;;;;;;;3.43;1.20;;;;;;;24.36;50.46;100952.44;5029138;28;20419;-63
2022/06/17 04:11:40;;;;;;;3.07;1.30;;;;;;;24.35;50.58;100957.41;5031138;28;20403;-63
2022/06/17 04:14:34;;;;;;;2.00;1.20;;;;;;;24.35;50.61;100957.41;5035437;28;20423;-63
2022/06/17 04:17:12;;;;;;;2.70;1.50;;;;;;;24.35;50.69;100970.97;5049758;28;20171;-63
2022/06/17 04:19:37;;;;;;;3.60;1.30;;;;;;;24.35;50.50;100968.09;5046346;28;20840;-63
2022/06/17 04:22:06;;;;;;;1.70;1.10;;;;;;;24.35;50.56;100968.94;5046796;28;20967;-63
2022/06/17 04:24:32;;;;;;;2.37;1.43;;;;;;;24.36;50.67;100975.53;5047111;28;20553;-63
2022/06/17 04:27:00;;;;;;;3.60;1.50;;;;;;;24.34;50.71;100970.16;5052671;28;20428;-63
2022/06/17 04:29:35;;;;;;;2.07;1.30;;;;;;;24.34;50.76;100975.91;5050791;28;20225;-63
2022/06/17 04:32:10;;;;;;;2.60;1.50;;;;;;;24.35;50.70;100968.09;5067137;28;20423;-63
2022/06/17 04:34:35;;;;;;;2.43;1.50;;;;;;;24.34;50.78;100984.56;5063111;28;20452;-63
2022/06/17 04:37:03;;;;;;;4.50;1.63;;;;;;;24.35;50.75;100983.38;5030719;28;20422;-63
2022/06/17 04:39:42;;;;;;;3.67;1.50;;;;;;;24.39;50.75;100983.38;5031020;28;20188;-63
2022/06/17 04:42:12;;;;;;;2.90;1.50;;;;;;;24.42;50.58;100979.66;5029651;28;20486;-63
2022/06/17 04:44:39;;;;;;;2.77;1.70;;;;;;;24.44;50.61;100983.00;5013258;28;20434;-63
2022/06/17 04:47:10;;;;;;;3.10;1.67;;;;;;;24.44;50.80;100992.47;5029807;28;20514;-63
2022/06/17 04:49:37;;;;;;;2.63;1.50;;;;;;;24.45;50.84;100994.16;5013229;28;20426;-63
2022/06/17 04:52:09;;;;;;;2.53;1.40;;;;;;;24.48;50.78;100999.09;5030589;28;20886;-63
2022/06/17 04:54:34;;;;;;;2.97;1.70;;;;;;;24.49;50.45;100988.38;5029501;28;20431;-63
2022/06/17 04:57:02;;;;;;;2.27;1.33;;;;;;;24.51;50.60;101001.19;5043497;28;20418;-63
2022/06/17 04:59:33;;;;;;;4.93;1.73;;;;;;;24.51;50.62;100998.28;5050599;28;20258;-63
2022/06/17 05:01:59;;;;;;;2.57;1.50;;;;;;;24.52;50.90;101002.81;5050407;28;20454;-63
2022/06/17 05:04:25;;;;;;;4.10;1.37;;;;;;;24.52;51.13;101010.66;5049845;28;20410;-63
2022/06/17 05:06:50;;;;;;;2.67;1.70;;;;;;;24.51;50.55;101012.72;5029254;28;20545;-62
2022/06/17 05:09:34;;;;;;;2.77;1.53;;;;;;;24.49;50.66;101011.47;5030395;28;20236;-62
2022/06/17 05:12:03;;;;;;;3.97;1.40;;;;;;;24.50;50.30;101016.84;5030490;28;20203;-62
2022/06/17 05:14:42;;;;;;;2.70;1.50;;;;;;;24.48;50.13;101012.72;5029580;28;20427;-63
2022/06/17 05:17:07;;;;;;;2.60;1.53;;;;;;;24.49;50.11;101023.84;5029173;28;20957;-63
2022/06/17 05:19:33;;;;;;;2.80;1.53;;;;;;;24.50;50.46;101021.78;5030671;28;20421;-63
2022/06/17 05:21:59;;;;;;;2.73;1.50;;;;;;;24.50;50.10;101028.41;5033759;28;20195;-63
2022/06/17 05:24:27;;;;;;;3.33;1.47;;;;;;;24.51;50.17;101024.28;5054220;28;20183;-63
2022/06/17 05:26:53;;;;;;;4.00;1.40;;;;;;;24.50;49.06;101028.41;5058805;28;20229;-63
2022/06/17 05:29:18;;;;;;;6.73;1.70;;;;;;;24.52;50.10;101025.09;5074302;28;20421;-63
2022/06/17 05:31:49;;;;;;;2.87;1.40;;;;;;;24.54;49.98;101026.34;5073934;28;20171;-63
2022/06/17 05:34:15;;;;;;;3.90;1.70;;;;;;;24.56;49.86;101038.31;5072760;28;20175;-63
2022/06/17 05:36:40;;;;;;;2.80;1.57;;;;;;;24.54;49.49;101032.13;5034232;28;20437;-63
2022/06/17 05:39:06;;;;;;;4.03;1.77;;;;;;;24.55;49.67;101035.84;5033380;28;20173;-63
2022/06/17 05:41:31;;;;;;;3.33;1.50;;;;;;;24.55;49.75;101030.06;5034923;28;20250;-63
2022/06/17 05:43:57;;;;;;;5.10;1.73;;;;;;;24.50;49.66;101028.41;5052531;28;20180;-63
2022/06/17 05:46:22;;;;;;;3.00;2.00;;;;;;;24.50;49.72;101031.28;5053575;28;20184;-63
2022/06/17 05:48:47;;;;;;;4.67;1.60;;;;;;;24.50;49.81;101025.53;5053728;28;20198;-63
2022/06/17 05:51:13;;;;;;;4.73;1.90;;;;;;;24.49;50.26;101032.50;5053352;28;20644;-63
2022/06/17 05:53:38;;;;;;;3.90;1.60;;;;;;;24.50;49.60;101034.19;5053673;28;20262;-63
2022/06/17 05:56:04;;;;;;;4.43;1.50;;;;;;;24.50;49.95;101031.28;5053668;28;20549;-63
2022/06/17 05:58:29;;;;;;;2.97;1.40;;;;;;;24.50;50.00;101039.13;5053168;28;20646;-63
2022/06/17 06:00:55;;;;;;;5.30;1.90;;;;;;;24.49;50.11;101041.16;5053605;28;20184;-63
2022/06/17 06:03:22;;;;;;;3.93;1.80;;;;;;;24.50;49.88;101037.06;5053345;28;20564;-63
2022/06/17 06:05:48;;;;;;;3.30;1.70;;;;;;;24.51;50.28;101047.38;5040484;28;20216;-63
2022/06/17 06:08:13;;;;;;;2.43;1.30;;;;;;;24.53;50.14;101050.69;5033315;28;20450;-63
2022/06/17 06:10:39;;;;;;;2.60;1.60;;;;;;;24.53;50.05;101044.91;5049976;28;20767;-63
2022/06/17 06:13:04;;;;;;;6.07;1.70;;;;;;;24.53;49.91;101041.19;5052839;28;20180;-63
2022/06/17 06:15:39;;;;;;;3.37;1.77;;;;;;;24.55;50.11;101030.06;5051769;28;20175;-63
2022/06/17 06:18:06;;;;;;;3.67;1.50;;;;;;;24.54;49.94;101032.13;5050201;28;20180;-63
2022/06/17 06:20:31;;;;;;;2.20;1.37;;;;;;;24.55;50.05;101028.03;5049883;28;20422;-63
2022/06/17 06:22:57;;;;;;;3.00;1.50;;;;;;;24.55;49.69;101030.06;5038148;28;20462;-63
2022/06/17 06:25:22;;;;;;;3.67;1.60;;;;;;;24.55;50.12;101024.28;5029392;28;20177;-63
2022/06/17 06:27:48;;;;;;;3.80;1.70;;;;;;;24.54;50.29;101028.41;5057082;28;20178;-63
2022/06/17 06:30:16;;;;;;;3.07;1.50;;;;;;;24.51;50.41;101035.81;5070419;28;20516;-63
2022/06/17 06:32:47;;;;;;;3.80;1.67;;;;;;;24.49;50.43;101020.13;5071735;28;20253;-63
2022/06/17 06:35:16;;;;;;;2.70;1.70;;;;;;;24.49;50.20;101031.69;5057521;28;20446;-63
2022/06/17 06:37:41;;;;;;;3.50;1.57;;;;;;;24.49;50.54;101035.38;5017286;28;20422;-63
2022/06/17 06:40:07;;;;;;;3.10;1.50;;;;;;;24.48;50.22;101036.63;5032953;28;20779;-63
2022/06/17 06:42:32;;;;;;;2.80;1.60;;;;;;;24.48;50.52;101027.16;5032778;28;20235;-63
2022/06/17 06:44:58;;;;;;;4.17;1.77;;;;;;;24.49;50.34;101034.56;5032806;28;20184;-63
2022/06/17 06:47:23;;;;;;;2.93;1.70;;;;;;;24.48;50.23;101030.84;5032393;28;20176;-63
2022/06/17 06:49:48;;;;;;;4.00;1.60;;;;;;;24.48;50.20;101042.41;5032348;28;20192;-63
2022/06/17 06:52:14;;;;;;;4.30;1.40;;;;;;;24.49;50.17;101038.28;5032369;28;20172;-63
2022/06/17 06:54:40;;;;;;;3.07;1.67;;;;;;;24.49;50.04;101040.34;5032299;28;20546;-63
2022/06/17 06:57:05;;;;;;;4.17;1.77;;;;;;;24.50;50.21;101048.63;5031688;28;20184;-63
2022/06/17 06:59:30;;;;;;;4.70;1.77;;;;;;;24.51;50.32;101050.25;5032591;28;20778;-63
2022/06/17 07:01:56;;;;;;;3.67;1.50;;;;;;;24.50;50.35;101047.78;5040445;28;20192;-63
2022/06/17 07:04:21;;;;;;;3.33;1.73;;;;;;;24.48;50.71;101053.94;5036263;28;20247;-63
2022/06/17 07:06:47;;;;;;;2.80;1.53;;;;;;;24.48;50.67;101050.25;5032292;28;20199;-63
2022/06/17 07:09:12;;;;;;;2.93;2.00;;;;;;;24.47;50.62;101058.06;5032051;28;20243;-63
2022/06/17 07:11:38;;;;;;;3.57;1.70;;;;;;;24.47;50.75;101057.22;5032202;28;20541;-63
2022/06/17 07:14:04;;;;;;;2.67;1.30;;;;;;;24.45;50.64;101054.78;5032016;28;20488;-63
2022/06/17 07:16:29;;;;;;;3.30;2.13;;;;;;;24.39;50.18;101055.53;5030618;28;20188;-63
2022/06/17 07:18:55;;;;;;;8.63;2.80;;;;;;;24.46;50.60;101061.34;5040348;28;20214;-63
2022/06/17 07:21:20;;;;;;;9.90;3.60;;;;;;;24.59;53.61;101060.63;5037726;28;20529;-63
2022/06/17 07:23:46;;;;;;;11.30;4.90;;;;;;;24.61;52.12;101066.00;5043870;28;20206;-63
2022/06/17 07:26:17;;;;;;;7.33;2.50;;;;;;;24.53;51.76;101059.34;5050686;28;20167;-63
2022/06/17 07:28:43;;;;;;;6.50;2.33;;;;;;;24.53;50.52;101068.00;5070176;28;20638;-63
2022/06/17 07:31:08;;;;;;;6.33;2.50;;;;;;;24.51;49.04;101058.94;5070521;28;20427;-63
2022/06/17 07:33:36;;;;;;;5.93;2.10;;;;;;;24.54;49.52;101057.28;5046421;28;20422;-63
2022/06/17 07:36:03;;;;;;;4.87;2.00;;;;;;;24.47;47.93;101065.88;5035654;28;20741;-63
2022/06/17 07:41:16;;;;;;;4.83;2.47;;;;;;;24.53;49.18;101059.34;5029111;28;20417;-63
2022/06/17 07:43:41;;;;;;;4.60;2.37;;;;;;;24.55;49.10;101047.38;5028570;28;20942;-63
2022/06/17 07:46:07;;;;;;;4.03;2.00;;;;;;;24.53;48.48;101052.75;5042687;28;20676;-62
2022/06/17 07:48:32;;;;;;;8.50;2.50;;;;;;;24.52;48.52;101049.03;5032696;28;20192;-63
2022/06/17 07:50:59;;;;;;;4.77;2.17;;;;;;;24.52;48.11;101046.13;5044579;28;20690;-63
2022/06/17 07:53:29;;;;;;;5.83;2.33;;;;;;;24.53;48.22;101049.88;5047491;28;20195;-63
2022/06/17 07:55:55;;;;;;;7.90;2.10;;;;;;;24.57;48.61;101045.75;5048006;28;20415;-63
2022/06/17 07:58:21;;;;;;;5.30;2.20;;;;;;;24.60;48.67;101055.69;5046700;28;20480;-63
2022/06/17 08:00:47;;;;;;;9.10;2.30;;;;;;;24.63;48.52;101043.34;5028140;28;20427;-63
2022/06/17 08:03:13;;;;;;;5.10;2.60;;;;;;;24.70;49.43;101055.78;5028354;28;20203;-63
2022/06/17 08:05:40;;;;;;;6.27;2.00;;;;;;;24.70;49.19;101037.59;5028381;28;20236;-63
2022/06/17 08:08:08;;;;;;;5.20;2.30;;;;;;;24.72;49.82;101035.97;5030776;28;20430;-63
2022/06/17 08:10:35;;;;;;;4.03;2.30;;;;;;;24.70;49.41;101041.31;5046197;28;20488;-63
2022/06/17 08:13:01;;;;;;;6.83;2.27;;;;;;;24.65;49.43;101035.09;5048116;28;20493;-63
2022/06/17 08:15:26;;;;;;;7.17;2.00;;;;;;;24.65;49.73;101035.94;5030221;28;20488;-62
2022/06/17 08:17:52;;;;;;;7.57;2.40;;;;;;;24.63;49.92;101026.84;5027861;28;20188;-63
2022/06/17 08:20:19;;;;;;;5.50;2.63;;;;;;;24.62;49.06;101033.00;5029909;28;20631;-63
2022/06/17 08:22:44;;;;;;;5.40;2.23;;;;;;;24.59;49.33;101043.31;5028148;28;20470;-63
2022/06/17 08:25:10;;;;;;;8.30;2.57;;;;;;;24.58;49.22;101040.81;5035984;28;20439;-63
2022/06/17 08:27:55;;;;;;;8.17;2.93;;;;;;;24.59;48.67;101046.19;5053660;28;20571;-62
2022/06/17 08:30:22;;;;;;;4.67;2.23;;;;;;;24.61;48.98;101043.75;5070064;28;20531;-62
2022/06/17 08:32:50;;;;;;;8.17;2.47;;;;;;;24.61;48.98;101046.63;5068983;28;20416;-62
2022/06/17 08:35:20;;;;;;;7.37;3.00;;;;;;;24.64;49.39;101045.81;5045201;28;20853;-63
2022/06/17 08:37:45;;;;;;;6.60;2.73;;;;;;;24.66;49.38;101054.06;5029727;28;20933;-62
2022/06/17 08:40:39;;;;;;;8.70;2.60;;;;;;;24.67;49.71;101050.78;5029503;28;20419;-62
2022/06/17 08:43:08;;;;;;;6.07;2.33;;;;;;;24.65;49.58;101056.16;5029342;28;20216;-62
2022/06/17 08:45:45;;;;;;;4.40;2.40;;;;;;;24.66;49.51;101049.13;5036252;28;20499;-62
2022/06/17 08:48:24;;;;;;;5.20;2.17;;;;;;;24.63;49.96;101052.81;5037415;28;20791;-62
2022/06/17 08:51:23;;;;;;;3.40;2.00;;;;;;;24.61;49.72;101052.41;5047103;28;20793;-62
2022/06/17 08:53:52;;;;;;;3.77;2.10;;;;;;;24.60;49.32;101056.53;5045130;28;20995;-62
2022/06/17 08:56:48;;;;;;;4.63;2.00;;;;;;;24.65;49.59;101047.50;5031491;28;20906;-62
2022/06/17 08:59:44;;;;;;;6.17;2.43;;;;;;;24.64;49.47;101039.22;5034637;28;20857;-62
2022/06/17 09:02:28;;;;;;;6.03;2.30;;;;;;;24.65;49.29;101040.88;5054918;28;20564;-62
2022/06/17 09:05:02;;;;;;;8.90;2.30;;;;;;;24.65;48.94;101041.72;5034593;28;20930;-62
2022/06/17 09:07:32;;;;;;;7.63;2.43;;;;;;;24.63;49.00;101038.38;5047028;28;20480;-62
2022/06/17 09:10:03;;;;;;;4.83;2.20;;;;;;;24.62;49.23;101041.66;5045827;28;20822;-62
2022/06/17 09:12:31;;;;;;;3.90;1.80;;;;;;;24.61;48.47;101042.91;5032720;28;21304;-62
2022/06/17 09:15:25;;;;;;;4.40;2.50;;;;;;;24.60;48.13;101033.44;5038527;28;20438;-62
2022/06/17 09:18:27;;;;;;;5.43;2.03;;;;;;;24.59;48.29;101022.28;5050879;28;20422;-62
2022/06/17 09:20:55;;;;;;;3.63;2.30;;;;;;;24.62;47.32;101025.19;5037892;28;20751;-62
2022/06/17 09:23:23;;;;;;;4.10;2.47;;;;;;;24.64;47.40;101022.72;5032757;28;20470;-62
2022/06/17 09:25:49;;;;;;;13.50;2.50;;;;;;;24.66;47.38;101031.81;5032909;28;20525;-62
2022/06/17 09:28:36;;;;;;;5.30;2.20;;;;;;;24.63;47.91;101023.94;5069212;28;20419;-62
2022/06/17 09:31:05;;;;;;;8.13;2.37;;;;;;;24.68;48.52;101014.09;5055874;28;20547;-62
2022/06/17 09:33:40;;;;;;;5.30;2.43;;;;;;;24.63;49.22;101026.84;5045499;28;20973;-62
2022/06/17 09:36:09;;;;;;;7.83;2.33;;;;;;;24.69;50.03;101025.22;5020186;28;20445;-62
2022/06/17 09:38:39;;;;;;;9.60;2.60;;;;;;;24.69;49.50;101025.22;5034784;28;20480;-62
2022/06/17 09:41:23;;;;;;;4.37;2.23;;;;;;;24.71;49.33;101021.91;5030881;28;20492;-62
2022/06/17 09:44:13;;;;;;;6.23;2.60;;;;;;;24.73;49.51;101023.16;5030504;28;20458;-62
2022/06/17 09:46:43;;;;;;;7.57;2.50;;;;;;;24.75;49.49;101031.44;5031893;28;20425;-62
2022/06/17 09:49:29;;;;;;;5.40;2.20;;;;;;;24.74;49.62;101021.94;5032313;28;20415;-62
2022/06/17 09:52:03;;;;;;;4.77;2.40;;;;;;;24.73;49.89;101020.28;5030105;28;20761;-62
2022/06/17 09:54:35;;;;;;;8.27;2.73;;;;;;;24.75;50.06;101017.84;5018733;28;20468;-62
2022/06/17 09:57:21;;;;;;;4.50;2.20;;;;;;;24.76;49.93;101013.72;5033944;28;20937;-62
2022/06/17 10:00:18;;;;;;;4.60;2.10;;;;;;;24.76;50.06;101013.72;5032220;28;20509;-61
2022/06/17 10:02:57;;;;;;;4.10;2.30;;;;;;;24.76;49.94;101013.72;5032262;28;20477;-61
2022/06/17 10:05:26;;;;;;;4.10;2.30;;;;;;;24.76;49.88;101013.72;5033081;28;20866;-62
2022/06/17 10:07:55;;;;;;;5.80;2.13;;;;;;;24.76;50.15;101019.47;5049959;28;20437;-62
2022/06/17 10:10:47;;;;;;;9.37;2.50;;;;;;;24.77;50.19;101023.19;5053036;28;20488;-62
2022/06/17 10:13:19;;;;;;;3.23;1.97;;;;;;;24.75;50.05;101020.72;5053700;28;20422;-62
2022/06/17 10:18:55;;;;;;;5.60;2.27;;;;;;;24.78;49.57;101016.19;5052152;28;20778;-62
2022/06/17 10:21:58;;;;;;;5.47;2.33;;;;;;;24.79;49.57;101006.28;5052318;28;20426;-62
2022/06/17 10:24:26;;;;;;;5.77;2.47;;;;;;;24.80;49.77;101005.06;5051504;28;20483;-62
2022/06/17 10:26:54;;;;;;;5.87;2.80;;;;;;;24.80;49.39;101003.00;5044954;28;20424;-62
2022/06/17 10:29:57;;;;;;;3.77;2.50;;;;;;;24.80;49.93;101003.00;5071940;28;20574;-62
2022/06/17 10:32:22;;;;;;;4.40;2.40;;;;;;;24.79;48.81;101012.88;5072749;28;20428;-62
2022/06/17 10:34:58;;;;;;;8.47;2.37;;;;;;;24.78;49.76;101008.34;5064369;28;20427;-62
2022/06/17 10:37:25;;;;;;;5.73;2.63;;;;;;;24.79;49.49;101009.97;5032835;28;20559;-62
2022/06/17 10:39:50;;;;;;;5.13;2.17;;;;;;;24.81;49.36;101016.19;5040327;28;20468;-62
2022/06/17 10:42:16;;;;;;;3.83;2.20;;;;;;;24.80;49.73;101003.00;5051390;28;20462;-62
2022/06/17 10:44:43;;;;;;;5.17;2.33;;;;;;;24.81;49.92;101007.53;5051388;28;20656;-62
2022/06/17 10:47:44;;;;;;;3.57;1.90;;;;;;;24.81;49.45;101004.66;5051331;28;20457;-62
2022/06/17 10:50:22;;;;;;;3.67;2.30;;;;;;;24.82;49.84;101006.28;5052741;28;20497;-62
2022/06/17 10:52:54;;;;;;;5.40;2.47;;;;;;;24.82;49.54;101006.28;5051390;28;20402;-62
2022/06/17 10:55:23;;;;;;;6.33;3.10;;;;;;;24.82;49.65;100997.63;5051446;28;20415;-62
2022/06/17 10:58:18;;;;;;;4.10;2.20;;;;;;;24.83;49.61;100996.38;5051100;28;20410;-62
2022/06/17 11:01:04;;;;;;;3.50;2.10;;;;;;;24.83;49.72;100996.38;5052147;28;20930;-62
2022/06/17 11:03:33;;;;;;;4.20;2.20;;;;;;;24.85;49.53;100999.72;5052218;28;20453;-62
2022/06/17 11:06:00;;;;;;;4.40;2.13;;;;;;;24.84;49.35;100998.03;5038014;28;20450;-62
2022/06/17 11:12:05;;;;;;;2.93;2.13;;;;;;;24.84;49.49;101000.13;4778430;28;20527;-62
2022/06/17 11:14:44;;;;;;;2.60;1.83;;;;;;;24.85;49.33;100999.72;5017590;28;20408;-62
2022/06/17 11:17:32;;;;;;;3.73;2.07;;;;;;;24.85;49.38;100999.72;5030901;28;20442;-62
2022/06/17 11:20:01;;;;;;;3.60;2.07;;;;;;;24.84;49.28;100992.25;5031826;28;20477;-62
2022/06/17 11:22:39;;;;;;;8.03;2.53;;;;;;;24.84;49.43;100977.81;5030674;28;20467;-62
2022/06/17 11:25:22;;;;;;;5.23;2.33;;;;;;;24.83;49.23;100978.25;5030827;28;20422;-62
2022/06/17 11:27:54;;;;;;;3.03;1.97;;;;;;;24.82;49.88;100968.75;5059009;28;20424;-62
2022/06/17 11:30:30;;;;;;;3.00;1.97;;;;;;;24.82;49.46;100976.56;5072113;28;20927;-62
2022/06/17 11:32:57;;;;;;;3.80;2.17;;;;;;;24.84;49.49;100968.34;5070459;28;20860;-62
2022/06/17 11:35:35;;;;;;;4.20;2.30;;;;;;;24.85;49.09;100967.09;5045988;28;20771;-62
2022/06/17 11:38:01;;;;;;;4.33;2.00;;;;;;;24.85;49.06;100962.16;5031938;28;20481;-62
2022/06/17 11:40:31;;;;;;;4.43;1.97;;;;;;;24.84;49.28;100963.38;5013958;28;20862;-62
2022/06/17 11:43:02;;;;;;;3.23;1.90;;;;;;;24.84;49.22;100963.38;5030594;28;20470;-61
2022/06/17 11:45:28;;;;;;;7.00;2.40;;;;;;;24.85;48.99;100959.28;5048191;28;20414;-61
2022/06/17 11:48:05;;;;;;;3.43;1.90;;;;;;;24.85;48.81;100953.50;5051735;28;20440;-61
2022/06/17 11:50:35;;;;;;;4.27;2.13;;;;;;;24.86;48.97;100955.16;5051553;28;20834;-61
2022/06/17 11:53:07;;;;;;;5.43;2.10;;;;;;;24.86;48.96;100946.47;5049873;28;20826;-61